Time;durP1;ratioP1;P1;durP2;ratioP2;P2;SDS_P1;SDS_P2;PMS_P1;PMS_P2;Temp;Humidity;BMP_temperature;BMP_pressure;BME280_temperature;BME280_humidity;BME280_pressure;Samples;Min_cycle;Max_cycle;Signal;HPM_P1;HPM_P2
2023/05/07 00:01:06;;;;;;;8.00;7.10;;;13.70;99.90;;;;;;5078037;28;20041;-80
2023/05/07 00:03:32;;;;;;;10.10;7.45;;;13.70;99.90;;;;;;5038479;28;20064;-80
2023/05/07 00:05:58;;;;;;;10.43;8.23;;;13.60;99.90;;;;;;5047922;28;20112;-80
2023/05/07 00:08:24;;;;;;;12.18;8.85;;;13.70;99.90;;;;;;5027182;28;20041;-80
2023/05/07 00:10:49;;;;;;;8.73;7.88;;;13.70;99.90;;;;;;5044610;28;20143;-80
2023/05/07 00:13:15;;;;;;;9.30;8.40;;;13.60;99.90;;;;;;5043881;28;20135;-80
2023/05/07 00:15:41;;;;;;;11.35;7.85;;;13.60;99.90;;;;;;5050155;28;20091;-80
2023/05/07 00:18:06;;;;;;;9.55;8.55;;;13.60;99.90;;;;;;5045571;28;20068;-80
2023/05/07 00:20:32;;;;;;;10.93;8.50;;;13.60;99.90;;;;;;5040567;28;20022;-81
2023/05/07 00:22:57;;;;;;;10.73;8.65;;;13.50;99.90;;;;;;5057455;28;20033;-80
2023/05/07 00:25:23;;;;;;;9.60;8.57;;;13.50;99.90;;;;;;5062353;28;20037;-80
2023/05/07 00:27:49;;;;;;;9.50;8.55;;;13.50;99.90;;;;;;5040033;28;20044;-80
2023/05/07 00:30:14;;;;;;;10.68;8.60;;;13.50;99.90;;;;;;5061278;28;20082;-80
2023/05/07 00:32:40;;;;;;;11.32;9.27;;;13.50;99.90;;;;;;5042903;28;20107;-80
2023/05/07 00:35:06;;;;;;;11.27;8.88;;;13.50;99.90;;;;;;5051462;28;20048;-80
2023/05/07 00:37:32;;;;;;;10.93;9.90;;;13.50;99.90;;;;;;5043226;28;20049;-80
2023/05/07 00:39:58;;;;;;;10.93;9.38;;;13.40;99.90;;;;;;5045636;28;20037;-80
2023/05/07 00:42:24;;;;;;;12.20;9.90;;;13.40;99.90;;;;;;5045680;28;20033;-80
2023/05/07 00:44:50;;;;;;;10.55;9.52;;;13.40;99.90;;;;;;5043324;28;20063;-80
2023/05/07 00:47:16;;;;;;;12.65;10.32;;;13.30;99.90;;;;;;5043027;28;20037;-81
2023/05/07 00:49:43;;;;;;;11.75;10.52;;;13.40;99.90;;;;;;5044787;28;20041;-80
2023/05/07 00:52:16;;;;;;;11.90;10.80;;;13.30;99.90;;;;;;5045369;28;20112;-80
2023/05/07 00:54:42;;;;;;;13.02;11.57;;;13.30;99.90;;;;;;5045374;28;20538;-81
2023/05/07 00:57:09;;;;;;;15.48;12.95;;;13.30;99.90;;;;;;5045115;28;20087;-80
2023/05/07 00:59:35;;;;;;;17.40;12.57;;;13.20;99.90;;;;;;5048546;28;20046;-80
2023/05/07 01:02:01;;;;;;;13.52;12.23;;;13.10;99.90;;;;;;5046051;28;20073;-80
2023/05/07 01:04:26;;;;;;;15.02;13.45;;;13.20;99.90;;;;;;5040524;28;20030;-80
2023/05/07 01:06:55;;;;;;;16.40;13.73;;;13.10;99.90;;;;;;5042687;28;20037;-81
2023/05/07 01:09:23;;;;;;;14.82;13.25;;;13.10;99.90;;;;;;5046773;28;20044;-80
2023/05/07 01:11:50;;;;;;;16.75;14.35;;;13.00;99.90;;;;;;5046747;28;20526;-80
2023/05/07 01:14:16;;;;;;;16.88;14.32;;;13.00;99.90;;;;;;5082599;28;20037;-80
2023/05/07 01:16:42;;;;;;;16.90;15.02;;;13.00;99.90;;;;;;5053839;28;20056;-81
2023/05/07 01:19:14;;;;;;;16.70;14.95;;;12.90;99.90;;;;;;5035963;28;20688;-80
2023/05/07 01:21:46;;;;;;;16.10;14.52;;;12.90;99.90;;;;;;5046015;28;20039;-80
2023/05/07 01:24:12;;;;;;;18.08;16.27;;;12.90;99.90;;;;;;5043251;28;20048;-80
2023/05/07 01:26:39;;;;;;;18.25;16.35;;;12.90;99.90;;;;;;5044375;28;20030;-80
2023/05/07 01:29:05;;;;;;;20.35;16.90;;;12.80;99.90;;;;;;5045866;28;20106;-80
2023/05/07 01:31:33;;;;;;;17.85;16.05;;;12.80;99.90;;;;;;5046436;28;20045;-80
2023/05/07 01:34:00;;;;;;;21.05;16.98;;;12.70;99.90;;;;;;5047150;28;20120;-81
2023/05/07 01:36:28;;;;;;;19.55;17.52;;;12.70;99.90;;;;;;5046243;28;20116;-80
2023/05/07 01:38:57;;;;;;;22.75;17.85;;;12.70;99.90;;;;;;5046284;28;20050;-80
2023/05/07 01:41:23;;;;;;;22.27;17.60;;;12.60;99.90;;;;;;5049723;28;20049;-80
2023/05/07 01:43:50;;;;;;;23.20;18.05;;;12.60;99.90;;;;;;5051040;28;20038;-80
2023/05/07 01:46:18;;;;;;;18.65;16.70;;;12.50;99.90;;;;;;5082645;28;20086;-80
2023/05/07 01:48:45;;;;;;;22.30;17.92;;;12.50;99.90;;;;;;5059212;28;20403;-80
2023/05/07 01:51:12;;;;;;;20.48;18.50;;;12.50;99.90;;;;;;5051025;28;20632;-80
2023/05/07 01:53:38;;;;;;;20.80;18.77;;;12.40;99.90;;;;;;5047993;28;20523;-81
2023/05/07 01:56:04;;;;;;;21.27;19.23;;;12.40;99.90;;;;;;5032858;28;20136;-80
2023/05/07 01:58:30;;;;;;;23.27;18.70;;;12.40;99.90;;;;;;5043988;28;20403;-80
2023/05/07 02:00:55;;;;;;;20.65;18.65;;;12.30;99.90;;;;;;5031808;28;20041;-81
2023/05/07 02:03:21;;;;;;;22.55;18.85;;;12.30;99.90;;;;;;5044133;28;20120;-80
2023/05/07 02:05:46;;;;;;;20.88;18.67;;;12.20;99.90;;;;;;5043936;28;20125;-81
2023/05/07 02:08:12;;;;;;;21.35;18.77;;;12.20;99.90;;;;;;5079863;28;20090;-80
2023/05/07 02:10:38;;;;;;;22.20;19.70;;;12.20;99.90;;;;;;5047370;28;20503;-80
2023/05/07 02:13:03;;;;;;;22.45;20.05;;;12.10;99.90;;;;;;5036230;28;20041;-80
2023/05/07 02:15:29;;;;;;;24.15;18.88;;;12.10;99.90;;;;;;5044647;28;20044;-80
2023/05/07 02:17:59;;;;;;;22.98;20.30;;;12.10;99.90;;;;;;5046097;28;20067;-81
2023/05/07 02:20:25;;;;;;;22.52;20.23;;;12.10;99.90;;;;;;5045448;28;20112;-80
2023/05/07 02:22:50;;;;;;;21.23;18.98;;;12.10;99.90;;;;;;5047527;28;20431;-80
2023/05/07 02:25:16;;;;;;;23.50;19.95;;;12.00;99.90;;;;;;5046569;28;20036;-80
2023/05/07 02:27:42;;;;;;;22.15;19.92;;;11.90;99.90;;;;;;5049227;28;20926;-80
2023/05/07 02:30:07;;;;;;;24.60;21.05;;;11.90;99.90;;;;;;5042019;28;20510;-80
2023/05/07 02:32:33;;;;;;;24.85;20.90;;;11.90;99.90;;;;;;5039714;28;20043;-80
2023/05/07 02:34:59;;;;;;;24.05;21.08;;;11.90;99.90;;;;;;5046628;28;20411;-80
2023/05/07 02:37:25;;;;;;;22.80;20.48;;;11.80;99.90;;;;;;5041886;28;20124;-80
2023/05/07 02:39:50;;;;;;;22.85;20.50;;;11.80;99.90;;;;;;5047705;28;20083;-80
2023/05/07 02:42:16;;;;;;;26.13;21.55;;;11.80;99.90;;;;;;5045403;28;20041;-80
2023/05/07 02:44:41;;;;;;;23.38;20.95;;;11.70;99.90;;;;;;5043642;28;20083;-80
2023/05/07 02:47:08;;;;;;;23.38;20.98;;;11.80;99.90;;;;;;5045092;28;20040;-80
2023/05/07 02:49:34;;;;;;;25.33;21.83;;;11.70;99.90;;;;;;5044673;28;20065;-80
2023/05/07 02:51:59;;;;;;;24.63;21.85;;;11.70;99.90;;;;;;5047485;28;20033;-80
2023/05/07 02:54:25;;;;;;;27.60;23.48;;;11.60;99.90;;;;;;5042719;28;20044;-80
2023/05/07 02:56:51;;;;;;;23.60;21.30;;;11.70;99.90;;;;;;5043471;28;20048;-80
2023/05/07 02:59:16;;;;;;;26.38;22.50;;;11.60;99.90;;;;;;5035041;28;20416;-80
2023/05/07 03:01:43;;;;;;;27.00;23.48;;;11.60;99.90;;;;;;5044697;28;20434;-80
2023/05/07 03:04:10;;;;;;;26.00;23.30;;;11.50;99.90;;;;;;5048465;28;20480;-80
2023/05/07 03:06:36;;;;;;;31.27;23.58;;;11.60;99.90;;;;;;5046687;28;20457;-80
2023/05/07 03:09:02;;;;;;;30.33;25.70;;;11.50;99.90;;;;;;5042757;28;20028;-80
2023/05/07 03:11:27;;;;;;;30.92;24.20;;;11.60;99.90;;;;;;5024846;28;20123;-80
2023/05/07 03:13:53;;;;;;;27.60;24.30;;;11.50;99.90;;;;;;5065224;28;20080;-80
2023/05/07 03:16:19;;;;;;;28.15;25.15;;;11.40;99.90;;;;;;5027179;28;20126;-80
2023/05/07 03:18:44;;;;;;;29.70;25.65;;;11.50;99.90;;;;;;5047878;28;20079;-81
2023/05/07 03:21:10;;;;;;;32.20;25.38;;;11.50;99.90;;;;;;5043354;28;20075;-80
2023/05/07 03:23:35;;;;;;;28.92;25.83;;;11.50;99.90;;;;;;5045145;28;20044;-80
2023/05/07 03:26:01;;;;;;;29.25;26.10;;;11.50;99.90;;;;;;5052048;28;20041;-80
2023/05/07 03:28:26;;;;;;;29.67;25.98;;;11.50;99.90;;;;;;5051737;28;20040;-80
2023/05/07 03:30:52;;;;;;;30.92;25.88;;;11.40;99.90;;;;;;5047278;28;20041;-80
2023/05/07 03:33:17;;;;;;;31.55;27.02;;;11.50;99.90;;;;;;5044159;28;20137;-80
2023/05/07 03:35:43;;;;;;;34.03;27.92;;;11.40;99.90;;;;;;5035730;28;20581;-81
2023/05/07 03:38:09;;;;;;;31.70;27.38;;;11.40;99.90;;;;;;5050756;28;20040;-80
2023/05/07 03:40:34;;;;;;;36.10;29.20;;;11.40;99.90;;;;;;5035724;28;20425;-80
2023/05/07 03:43:00;;;;;;;35.28;28.75;;;11.40;99.90;;;;;;5051227;28;20056;-80
2023/05/07 03:45:26;;;;;;;31.38;27.70;;;11.40;99.90;;;;;;5039261;28;20033;-80
2023/05/07 03:47:51;;;;;;;35.33;28.50;;;11.30;99.90;;;;;;5045338;28;20048;-81
2023/05/07 03:50:17;;;;;;;44.33;30.75;;;11.40;99.90;;;;;;5043994;28;20047;-81
2023/05/07 03:52:43;;;;;;;33.63;28.92;;;11.30;99.90;;;;;;5050786;28;20075;-80
2023/05/07 03:55:09;;;;;;;35.47;30.33;;;11.30;99.90;;;;;;5033265;28;20043;-81
2023/05/07 03:57:34;;;;;;;34.22;30.45;;;11.30;99.90;;;;;;5042849;28;20103;-80
2023/05/07 04:00:00;;;;;;;37.38;31.40;;;11.30;99.90;;;;;;5045528;28;20044;-80
2023/05/07 04:02:26;;;;;;;38.67;30.85;;;11.40;99.90;;;;;;5039478;28;20076;-81
2023/05/07 04:04:52;;;;;;;36.50;29.70;;;11.20;99.90;;;;;;5040197;28;20041;-80
2023/05/07 04:07:17;;;;;;;36.35;32.25;;;11.30;99.90;;;;;;5047488;28;20116;-80
2023/05/07 04:09:43;;;;;;;36.60;31.60;;;11.30;99.90;;;;;;5034194;28;20094;-80
2023/05/07 04:12:08;;;;;;;38.60;31.27;;;11.20;99.90;;;;;;5043985;28;20045;-80
2023/05/07 04:14:34;;;;;;;39.15;31.73;;;11.30;99.90;;;;;;5047051;28;20048;-80
2023/05/07 04:16:59;;;;;;;40.83;32.25;;;11.30;99.90;;;;;;5045636;28;20033;-80
2023/05/07 04:19:25;;;;;;;35.95;31.25;;;11.20;99.90;;;;;;5042669;28;20116;-80
2023/05/07 04:21:50;;;;;;;38.75;30.80;;;11.20;99.90;;;;;;5044158;28;20044;-81
2023/05/07 04:24:16;;;;;;;39.03;33.15;;;11.20;99.90;;;;;;5042532;28;20033;-80
2023/05/07 04:26:42;;;;;;;44.38;31.48;;;11.20;99.90;;;;;;5042479;28;20058;-80
2023/05/07 04:29:07;;;;;;;39.95;31.33;;;11.20;99.90;;;;;;5031111;28;20511;-80
2023/05/07 04:31:33;;;;;;;42.35;32.58;;;11.20;99.90;;;;;;5044330;28;20045;-80
2023/05/07 04:33:58;;;;;;;37.92;30.95;;;11.20;99.90;;;;;;5045141;28;20052;-80
2023/05/07 04:36:27;;;;;;;38.25;31.15;;;11.10;99.90;;;;;;5046202;28;20102;-80
2023/05/07 04:38:53;;;;;;;39.40;31.95;;;11.20;99.90;;;;;;5045907;28;20080;-81
2023/05/07 04:41:19;;;;;;;37.58;30.95;;;11.10;99.90;;;;;;5029705;28;20032;-80
2023/05/07 04:43:45;;;;;;;39.80;31.63;;;11.20;99.90;;;;;;5043366;28;20045;-81
2023/05/07 04:46:11;;;;;;;34.90;29.75;;;11.20;99.90;;;;;;5050233;28;20028;-81
2023/05/07 04:48:36;;;;;;;35.03;29.88;;;11.20;99.90;;;;;;5044154;28;20499;-80
2023/05/07 04:51:02;;;;;;;33.78;28.42;;;11.20;99.90;;;;;;5043185;28;20041;-80
2023/05/07 04:53:27;;;;;;;31.55;28.13;;;11.20;99.90;;;;;;5041173;28;20040;-80
2023/05/07 04:55:57;;;;;;;32.38;28.55;;;11.20;99.90;;;;;;5042572;28;20254;-80
2023/05/07 04:58:23;;;;;;;32.35;28.17;;;11.20;99.90;;;;;;5045298;28;20041;-81
2023/05/07 05:00:49;;;;;;;33.72;29.20;;;11.10;99.90;;;;;;5045589;28;20052;-80
2023/05/07 05:03:14;;;;;;;33.38;29.40;;;11.20;99.90;;;;;;5043510;28;20045;-81
2023/05/07 05:05:40;;;;;;;33.10;28.08;;;11.20;99.90;;;;;;5042119;28;20037;-80
2023/05/07 05:08:06;;;;;;;33.97;28.35;;;11.20;99.90;;;;;;5048736;28;20045;-81
2023/05/07 05:10:31;;;;;;;32.10;27.63;;;11.20;99.90;;;;;;5048060;28;20041;-81
2023/05/07 05:12:57;;;;;;;29.80;26.58;;;11.20;99.90;;;;;;5051778;28;20406;-83
2023/05/07 05:15:23;;;;;;;29.27;26.10;;;11.20;99.90;;;;;;5045012;28;20100;-80
2023/05/07 05:17:48;;;;;;;31.65;26.88;;;11.20;99.90;;;;;;5034099;28;20047;-83
2023/05/07 05:20:14;;;;;;;28.20;24.92;;;11.10;99.90;;;;;;5046881;28;20036;-81
2023/05/07 05:22:41;;;;;;;27.67;24.77;;;11.20;99.90;;;;;;5034855;28;20496;-80
2023/05/07 05:25:07;;;;;;;29.42;26.02;;;11.10;99.90;;;;;;5041759;28;20050;-80
2023/05/07 05:27:33;;;;;;;28.75;25.75;;;11.20;99.90;;;;;;5032690;28;20069;-80
2023/05/07 05:29:59;;;;;;;28.83;23.92;;;11.10;99.90;;;;;;5031162;28;20037;-81
2023/05/07 05:32:25;;;;;;;26.73;23.90;;;11.20;99.90;;;;;;5030020;28;20025;-80
2023/05/07 05:34:51;;;;;;;28.45;25.33;;;11.20;99.90;;;;;;5045078;28;20033;-80
2023/05/07 05:37:16;;;;;;;28.05;24.60;;;11.20;99.90;;;;;;5062312;28;20037;-79
2023/05/07 05:39:42;;;;;;;29.10;24.42;;;11.30;99.90;;;;;;5049388;28;20033;-80
2023/05/07 05:42:07;;;;;;;26.52;23.33;;;11.20;99.90;;;;;;5050557;28;20095;-80
2023/05/07 05:44:33;;;;;;;26.23;23.55;;;11.30;99.90;;;;;;5049979;28;20037;-82
2023/05/07 05:46:59;;;;;;;27.25;24.35;;;11.30;99.90;;;;;;5031497;28;20043;-83
2023/05/07 05:49:25;;;;;;;25.20;22.58;;;11.40;99.90;;;;;;5036097;28;20040;-81
2023/05/07 05:51:51;;;;;;;25.80;23.08;;;11.50;99.90;;;;;;5047458;28;20506;-80
2023/05/07 05:54:17;;;;;;;25.02;22.40;;;11.40;99.90;;;;;;5088229;28;20102;-81
2023/05/07 05:56:42;;;;;;;25.15;22.45;;;11.50;99.90;;;;;;5052543;28;20064;-81
2023/05/07 05:59:08;;;;;;;25.02;22.42;;;11.50;99.90;;;;;;5067474;28;20082;-84
2023/05/07 06:01:34;;;;;;;24.05;21.55;;;11.60;99.90;;;;;;5040403;28;20106;-81
2023/05/07 06:03:59;;;;;;;26.48;23.77;;;11.70;99.90;;;;;;5052093;28;20108;-82
2023/05/07 06:06:25;;;;;;;24.95;22.25;;;11.70;99.90;;;;;;5052528;28;20097;-81
2023/05/07 06:08:51;;;;;;;23.35;20.98;;;11.80;99.90;;;;;;5051538;28;20041;-81
2023/05/07 06:11:17;;;;;;;25.00;22.50;;;11.80;99.90;;;;;;5058005;28;20040;-82
2023/05/07 06:13:42;;;;;;;23.98;21.27;;;11.80;99.90;;;;;;5036933;28;20037;-82
2023/05/07 06:16:08;;;;;;;23.88;21.58;;;11.80;99.90;;;;;;5039004;28;20048;-81
2023/05/07 06:18:35;;;;;;;23.13;20.80;;;11.80;99.90;;;;;;5047095;28;20569;-82
2023/05/07 06:21:02;;;;;;;23.70;21.23;;;11.80;99.90;;;;;;5052812;28;20066;-81
2023/05/07 06:23:27;;;;;;;23.20;20.70;;;11.70;99.90;;;;;;5034016;28;20053;-81
2023/05/07 06:25:53;;;;;;;24.75;22.25;;;11.70;99.90;;;;;;5058283;28;20131;-81
2023/05/07 06:28:18;;;;;;;23.65;21.25;;;11.70;99.90;;;;;;5040145;28;20057;-81
2023/05/07 06:30:44;;;;;;;25.15;22.33;;;11.70;99.90;;;;;;5053886;28;20087;-82
2023/05/07 06:33:10;;;;;;;24.73;22.23;;;11.70;99.90;;;;;;5033704;28;20049;-81
2023/05/07 06:35:36;;;;;;;23.52;21.15;;;11.70;99.90;;;;;;5048024;28;20051;-81
2023/05/07 06:38:01;;;;;;;24.33;21.55;;;11.70;99.90;;;;;;5050965;28;20073;-81
2023/05/07 06:40:27;;;;;;;23.77;21.27;;;11.80;99.90;;;;;;5033193;28;20169;-82
2023/05/07 06:42:53;;;;;;;24.20;21.65;;;11.80;99.90;;;;;;5054404;28;20037;-81
2023/05/07 06:45:19;;;;;;;25.70;23.15;;;11.80;99.90;;;;;;5056161;28;20120;-82
2023/05/07 06:47:45;;;;;;;25.40;22.88;;;11.80;99.90;;;;;;5054328;28;20048;-82
2023/05/07 06:50:11;;;;;;;24.98;22.35;;;11.80;99.90;;;;;;5041639;28;20024;-78
2023/05/07 06:52:36;;;;;;;25.42;22.77;;;11.90;99.90;;;;;;5056253;28;20055;-81
2023/05/07 06:55:02;;;;;;;24.95;22.25;;;11.90;99.90;;;;;;5047344;28;20061;-81
2023/05/07 06:57:28;;;;;;;25.05;22.42;;;12.00;99.90;;;;;;5037394;28;20044;-83
2023/05/07 06:59:53;;;;;;;25.02;22.38;;;12.00;99.90;;;;;;5030275;28;20566;-81
2023/05/07 07:02:19;;;;;;;24.20;21.80;;;12.10;99.90;;;;;;5034735;28;20048;-82
2023/05/07 07:04:45;;;;;;;25.60;22.85;;;12.20;99.90;;;;;;5079468;28;20041;-82
2023/05/07 07:07:11;;;;;;;25.70;23.05;;;12.30;99.90;;;;;;5042965;28;20044;-82
2023/05/07 07:09:36;;;;;;;25.77;23.15;;;12.50;99.90;;;;;;5075633;28;20119;-83
2023/05/07 07:12:02;;;;;;;24.38;21.98;;;12.60;99.90;;;;;;5061584;28;20041;-83
2023/05/07 07:14:29;;;;;;;24.65;22.27;;;12.60;99.90;;;;;;5063130;28;20055;-82
2023/05/07 07:16:55;;;;;;;25.88;23.08;;;12.80;99.90;;;;;;5054172;28;20132;-82
2023/05/07 07:19:20;;;;;;;25.65;23.13;;;12.80;99.90;;;;;;5034274;28;20071;-84
2023/05/07 07:21:46;;;;;;;25.08;22.58;;;12.90;99.90;;;;;;5039043;28;20037;-80
2023/05/07 07:24:18;;;;;;;24.67;22.15;;;12.90;99.90;;;;;;5058491;28;20085;-83
2023/05/07 07:30:34;;;;;;;24.48;21.92;;;12.90;99.90;;;;;;5050239;28;20228;-83
2023/05/07 07:33:02;;;;;;;24.30;21.70;;;12.90;99.90;;;;;;5053541;28;20048;-83
2023/05/07 07:35:33;;;;;;;23.42;21.08;;;12.80;99.90;;;;;;5055646;28;20025;-83
2023/05/07 07:37:58;;;;;;;24.67;22.08;;;12.70;99.90;;;;;;5026801;28;20052;-83
2023/05/07 07:40:24;;;;;;;25.10;22.60;;;12.90;99.90;;;;;;5030490;28;20048;-83
2023/05/07 07:42:51;;;;;;;28.40;22.45;;;12.90;99.90;;;;;;5062781;28;20116;-81
2023/05/07 07:45:16;;;;;;;27.48;23.42;;;12.90;99.90;;;;;;5041401;28;20048;-82
2023/05/07 07:47:42;;;;;;;25.70;22.17;;;12.90;99.90;;;;;;5048819;28;20072;-82
2023/05/07 07:50:09;;;;;;;25.95;23.23;;;13.00;99.90;;;;;;5046996;28;21719;-83
2023/05/07 07:52:34;;;;;;;28.63;22.50;;;13.20;99.90;;;;;;5047757;28;20504;-85
2023/05/07 07:55:00;;;;;;;26.05;23.35;;;13.20;99.90;;;;;;5051809;28;20043;-83
2023/05/07 07:57:26;;;;;;;26.20;22.23;;;13.30;99.90;;;;;;5038341;28;20390;-84
2023/05/07 07:59:51;;;;;;;25.77;22.75;;;13.40;99.90;;;;;;5033605;28;20094;-82
2023/05/07 08:02:17;;;;;;;25.00;22.42;;;13.40;99.90;;;;;;5049601;28;20033;-82
2023/05/07 08:04:43;;;;;;;24.75;22.35;;;13.50;99.90;;;;;;5045367;28;20399;-83
2023/05/07 08:07:12;;;;;;;24.50;22.05;;;13.50;99.90;;;;;;5040652;28;20048;-82
2023/05/07 08:09:38;;;;;;;24.73;22.15;;;13.50;99.90;;;;;;5033158;28;20117;-82
2023/05/07 08:12:07;;;;;;;24.27;21.85;;;13.60;99.90;;;;;;5033244;28;20056;-82
2023/05/07 08:14:33;;;;;;;23.40;21.08;;;13.60;99.90;;;;;;5035645;28;20076;-83
2023/05/07 08:16:59;;;;;;;26.90;22.35;;;13.60;99.90;;;;;;5044128;28;20087;-82
2023/05/07 08:19:25;;;;;;;24.42;21.90;;;13.60;99.90;;;;;;5082990;28;20041;-83
2023/05/07 08:21:50;;;;;;;25.42;22.85;;;13.80;99.90;;;;;;5043245;28;20064;-81
2023/05/07 08:24:16;;;;;;;24.52;21.92;;;13.80;99.90;;;;;;5050627;28;20081;-82
2023/05/07 08:26:43;;;;;;;23.27;20.98;;;13.90;99.90;;;;;;5046533;28;20518;-82
2023/05/07 08:29:09;;;;;;;25.23;21.70;;;14.00;99.90;;;;;;5042847;28;20400;-82
2023/05/07 08:31:34;;;;;;;23.60;21.30;;;14.00;99.90;;;;;;5026911;28;20049;-83
2023/05/07 08:34:00;;;;;;;26.70;21.83;;;14.20;99.90;;;;;;5049376;28;20048;-82
2023/05/07 08:36:26;;;;;;;25.13;22.50;;;14.50;99.90;;;;;;5028880;28;20037;-82
2023/05/07 08:38:52;;;;;;;24.80;22.27;;;14.50;99.90;;;;;;5049818;28;20078;-83
2023/05/07 08:41:18;;;;;;;24.45;21.80;;;14.70;99.90;;;;;;5033475;28;20028;-83
2023/05/07 08:43:49;;;;;;;24.60;22.00;;;14.50;99.90;;;;;;5046117;28;20472;-83
2023/05/07 08:46:22;;;;;;;22.45;20.30;;;14.50;99.90;;;;;;5049465;28;20064;-83
2023/05/07 08:48:51;;;;;;;26.77;21.98;;;14.50;99.90;;;;;;5050036;28;20126;-83
2023/05/07 08:51:21;;;;;;;25.55;22.95;;;14.50;99.90;;;;;;5037803;28;20087;-83
2023/05/07 08:53:48;;;;;;;27.48;22.70;;;14.60;99.90;;;;;;5052749;28;20044;-83
2023/05/07 08:56:15;;;;;;;25.08;22.55;;;14.70;99.90;;;;;;5034453;28;20067;-83
2023/05/07 08:58:41;;;;;;;25.25;22.65;;;14.60;99.90;;;;;;5045066;28;20045;-83
2023/05/07 09:01:14;;;;;;;24.17;21.77;;;14.50;99.90;;;;;;5042418;28;20041;-82
2023/05/07 09:03:43;;;;;;;25.83;23.23;;;14.40;99.90;;;;;;5044422;28;20096;-82
2023/05/07 09:06:10;;;;;;;23.58;21.13;;;14.40;99.90;;;;;;5042932;28;20038;-82
2023/05/07 09:08:36;;;;;;;24.88;20.42;;;14.30;99.90;;;;;;5027394;28;20038;-83
2023/05/07 09:11:01;;;;;;;22.67;20.45;;;14.40;99.90;;;;;;5045047;28;20103;-83
2023/05/07 09:13:27;;;;;;;24.88;21.92;;;14.50;99.90;;;;;;5051538;28;20487;-83
2023/05/07 09:15:53;;;;;;;24.55;22.13;;;14.70;99.90;;;;;;5030310;28;20037;-83
2023/05/07 09:18:18;;;;;;;23.95;21.60;;;15.00;99.90;;;;;;5042553;28;20042;-83
2023/05/07 09:20:44;;;;;;;24.08;21.63;;;15.20;99.90;;;;;;5043828;28;20124;-83
2023/05/07 09:23:09;;;;;;;23.00;20.65;;;15.10;99.90;;;;;;5044725;28;20483;-82
2023/05/07 09:25:36;;;;;;;23.70;21.38;;;15.20;99.90;;;;;;5045047;28;20037;-81
2023/05/07 09:28:03;;;;;;;23.77;21.35;;;15.30;99.90;;;;;;5077500;28;20438;-82
2023/05/07 09:30:33;;;;;;;24.15;21.55;;;15.40;99.90;;;;;;5048539;28;20033;-82
2023/05/07 09:33:01;;;;;;;27.13;23.25;;;15.50;99.90;;;;;;5046029;28;20032;-83
2023/05/07 09:35:27;;;;;;;23.45;21.25;;;15.50;99.90;;;;;;5053080;28;20044;-81
2023/05/07 09:37:58;;;;;;;23.88;21.48;;;15.70;99.90;;;;;;5041320;28;20053;-82
2023/05/07 09:40:29;;;;;;;22.25;20.08;;;15.70;99.90;;;;;;5044425;28;20045;-84
2023/05/07 09:42:55;;;;;;;22.15;20.08;;;15.60;99.90;;;;;;5051713;28;20086;-83
2023/05/07 09:45:30;;;;;;;22.58;20.38;;;15.40;99.90;;;;;;5061595;28;20033;-83
2023/05/07 09:48:03;;;;;;;22.90;20.63;;;15.60;99.90;;;;;;5031696;28;20116;-86
2023/05/07 09:50:49;;;;;;;21.85;19.55;;;15.70;99.90;;;;;;5041750;28;20168;-83
2023/05/07 09:53:17;;;;;;;20.58;18.58;;;15.60;99.90;;;;;;5029993;28;20068;-84
2023/05/07 09:55:45;;;;;;;21.40;19.20;;;15.80;99.90;;;;;;5035487;28;20087;-84
2023/05/07 09:58:14;;;;;;;20.70;18.58;;;16.00;99.90;;;;;;5050180;28;21670;-82
2023/05/07 10:00:42;;;;;;;21.05;19.02;;;16.20;99.90;;;;;;5029288;28;20041;-82
2023/05/07 10:03:09;;;;;;;22.35;20.23;;;16.40;99.90;;;;;;5045281;28;20037;-83
2023/05/07 10:05:35;;;;;;;22.92;20.52;;;16.50;99.90;;;;;;5031595;28;20033;-82
2023/05/07 10:08:01;;;;;;;21.30;19.25;;;16.50;99.90;;;;;;5047944;28;20053;-81
2023/05/07 10:10:28;;;;;;;21.50;19.40;;;16.60;99.90;;;;;;5043526;28;20506;-82
2023/05/07 10:12:54;;;;;;;21.77;19.58;;;16.80;99.90;;;;;;5048294;28;20267;-82
2023/05/07 10:15:21;;;;;;;19.92;17.98;;;16.60;99.90;;;;;;5047471;28;20052;-82
2023/05/07 10:17:49;;;;;;;20.90;18.83;;;16.70;99.90;;;;;;5053688;28;20053;-82
2023/05/07 10:20:15;;;;;;;20.80;18.70;;;16.70;99.90;;;;;;5042671;28;20036;-82
2023/05/07 10:22:43;;;;;;;21.20;19.30;;;16.50;99.90;;;;;;5054300;28;20129;-82
2023/05/07 10:25:20;;;;;;;20.13;18.20;;;16.50;99.90;;;;;;5076063;28;20048;-81
2023/05/07 10:27:47;;;;;;;20.30;18.20;;;16.50;99.90;;;;;;5031545;28;20092;-83
2023/05/07 10:31:00;;;;;;;20.52;18.52;;;16.50;99.90;;;;;;5038506;28;20041;-81
2023/05/07 10:33:28;;;;;;;20.02;18.23;;;16.60;99.90;;;;;;5008886;28;20416;-85
2023/05/07 10:36:05;;;;;;;19.38;17.38;;;16.60;99.90;;;;;;5039047;28;20061;-83
2023/05/07 10:38:34;;;;;;;19.70;17.75;;;16.60;99.90;;;;;;5043185;28;20049;-83
2023/05/07 10:41:15;;;;;;;19.60;17.58;;;16.80;99.90;;;;;;5068416;28;20542;-83
2023/05/07 10:43:45;;;;;;;19.65;17.85;;;16.70;99.90;;;;;;5037637;28;20048;-83
2023/05/07 10:46:18;;;;;;;18.58;16.92;;;17.00;99.90;;;;;;5063559;28;20044;-83
2023/05/07 10:49:08;;;;;;;18.20;16.50;;;17.10;99.90;;;;;;5049386;28;20418;-83
2023/05/07 10:51:35;;;;;;;18.88;17.15;;;17.10;99.90;;;;;;5052052;28;20075;-84
2023/05/07 10:54:12;;;;;;;17.00;15.40;;;17.20;99.90;;;;;;5049573;28;20049;-84
2023/05/07 10:56:43;;;;;;;17.02;15.32;;;17.20;99.90;;;;;;5055163;28;20055;-85
2023/05/07 11:00:04;;;;;;;18.77;16.88;;;17.20;99.90;;;;;;5048296;28;20056;-84
2023/05/07 11:02:58;;;;;;;18.30;16.48;;;17.20;99.90;;;;;;5045956;28;20029;-84
2023/05/07 11:05:24;;;;;;;17.80;15.98;;;17.30;99.90;;;;;;5058256;28;20077;-83
2023/05/07 11:08:01;;;;;;;18.30;16.48;;;17.20;99.90;;;;;;5045126;28;20125;-83
2023/05/07 11:11:13;;;;;;;17.13;15.63;;;17.10;99.90;;;;;;5057800;28;20048;-82
2023/05/07 11:13:44;;;;;;;18.83;16.88;;;17.10;99.90;;;;;;5046279;28;20053;-83
2023/05/07 11:16:23;;;;;;;16.25;14.80;;;17.20;99.90;;;;;;5043773;28;20051;-82
2023/05/07 11:18:58;;;;;;;16.70;15.20;;;17.10;99.90;;;;;;5037100;28;20058;-82
2023/05/07 11:21:38;;;;;;;16.00;14.40;;;17.30;99.90;;;;;;5026820;28;20128;-83
2023/05/07 11:24:05;;;;;;;22.08;16.10;;;17.40;99.90;;;;;;5043307;28;20136;-85
2023/05/07 11:26:43;;;;;;;16.65;15.15;;;17.40;99.90;;;;;;5040687;28;20047;-82
2023/05/07 11:29:16;;;;;;;16.70;15.05;;;17.60;99.90;;;;;;5043439;28;20084;-81
2023/05/07 11:31:47;;;;;;;16.30;14.68;;;17.90;99.90;;;;;;5044453;28;20045;-87
2023/05/07 11:34:15;;;;;;;15.95;14.63;;;18.00;99.90;;;;;;5040721;28;20054;-81
2023/05/07 11:36:43;;;;;;;16.33;14.82;;;18.00;99.90;;;;;;5042933;28;20040;-82
2023/05/07 11:39:35;;;;;;;16.55;14.90;;;18.10;99.90;;;;;;5041870;28;20073;-81
2023/05/07 11:42:02;;;;;;;16.17;14.52;;;18.20;99.90;;;;;;5042290;28;20148;-81
2023/05/07 11:44:47;;;;;;;16.63;15.10;;;18.10;99.90;;;;;;5039918;28;20048;-81
2023/05/07 11:47:18;;;;;;;15.77;14.37;;;18.00;99.90;;;;;;5041560;28;20053;-80
2023/05/07 11:49:45;;;;;;;16.10;14.50;;;17.80;99.90;;;;;;5040212;28;20049;-81
2023/05/07 11:52:13;;;;;;;15.88;14.38;;;18.00;99.90;;;;;;5048010;28;20116;-81
2023/05/07 11:54:38;;;;;;;16.60;15.02;;;18.00;99.90;;;;;;5043423;28;20045;-81
2023/05/07 11:57:04;;;;;;;23.70;16.88;;;18.00;99.90;;;;;;5043377;28;20140;-79
2023/05/07 11:59:29;;;;;;;134.90;26.42;;;18.10;99.90;;;;;;5043197;28;20053;-83
2023/05/07 12:01:59;;;;;;;16.15;14.52;;;18.10;99.90;;;;;;5028058;28;20037;-82
2023/05/07 12:04:25;;;;;;;16.27;14.85;;;18.00;99.90;;;;;;5042619;28;20049;-79
2023/05/07 12:06:55;;;;;;;16.90;15.40;;;18.10;99.90;;;;;;5030260;28;20040;-80
2023/05/07 12:09:21;;;;;;;15.60;14.00;;;18.10;99.90;;;;;;5044074;28;20077;-81
2023/05/07 12:11:47;;;;;;;16.75;15.05;;;18.30;99.90;;;;;;5042282;28;20111;-81
2023/05/07 12:14:13;;;;;;;17.65;16.15;;;18.40;99.90;;;;;;5040613;28;20137;-80
2023/05/07 12:16:40;;;;;;;16.92;15.43;;;18.40;99.90;;;;;;5044143;28;20486;-80
2023/05/07 12:19:08;;;;;;;17.58;15.77;;;18.40;99.90;;;;;;5043748;28;20119;-80
2023/05/07 12:21:34;;;;;;;17.15;15.55;;;18.40;99.90;;;;;;5040774;28;20541;-80
2023/05/07 12:24:00;;;;;;;16.80;15.40;;;18.50;99.90;;;;;;5044785;28;20036;-81
2023/05/07 12:26:26;;;;;;;16.70;14.93;;;18.70;99.90;;;;;;5040241;28;20487;-80
2023/05/07 12:28:52;;;;;;;15.93;14.52;;;18.80;99.90;;;;;;5039694;28;20063;-80
2023/05/07 12:31:17;;;;;;;15.65;14.25;;;18.90;99.90;;;;;;5043155;28;20045;-80
2023/05/07 12:33:43;;;;;;;16.85;15.35;;;18.80;99.90;;;;;;5043967;28;20132;-80